createdAt,value
2018-05-01T00:00:04.663Z,930.82
2018-05-01T00:00:17.222Z,930.82
2018-05-01T00:00:29.315Z,930.84
2018-05-01T00:00:42.300Z,930.82
2018-05-01T00:00:54.870Z,930.81
2018-05-01T00:01:07.430Z,930.84
2018-05-01T00:01:19.484Z,930.85
2018-05-01T00:01:32.024Z,930.84
2018-05-01T00:01:45.006Z,930.85
2018-05-01T00:01:58.022Z,930.86
2018-05-01T00:02:10.121Z,930.82
2018-05-01T00:02:22.232Z,930.84
2018-05-01T00:02:35.254Z,930.84
2018-05-01T00:02:48.248Z,930.85
2018-05-01T00:03:00.807Z,930.87
2018-05-01T00:03:52.064Z,930.84
2018-05-01T00:04:04.632Z,930.86
2018-05-01T00:04:17.226Z,930.86
2018-05-01T00:04:30.267Z,930.84
2018-05-01T00:04:43.302Z,930.85
2018-05-01T00:04:55.889Z,930.84
2018-05-01T00:05:08.475Z,930.86
2018-05-01T00:05:21.026Z,930.87
2018-05-01T00:05:34.076Z,930.87
2018-05-01T00:05:47.165Z,930.87
2018-05-01T00:06:00.188Z,930.9
2018-05-01T00:06:12.275Z,930.88
2018-05-01T00:06:25.302Z,930.88
2018-05-01T00:06:38.341Z,930.89
2018-05-01T00:06:51.424Z,930.89
2018-05-01T00:07:04.456Z,930.91
2018-05-01T00:07:17.475Z,930.9
2018-05-01T00:07:30.471Z,930.9
2018-05-01T00:07:43.508Z,930.88
2018-05-01T00:07:56.547Z,930.88
2018-05-01T00:08:09.128Z,930.91
2018-05-01T00:08:21.234Z,930.91
2018-05-01T00:08:34.298Z,930.94
2018-05-01T00:08:46.816Z,930.91
2018-05-01T00:08:59.406Z,930.93
2018-05-01T00:09:11.503Z,930.93
2018-05-01T00:09:24.577Z,930.93
2018-05-01T00:09:36.705Z,930.91
2018-05-01T00:09:49.716Z,930.94
2018-05-01T00:10:02.714Z,930.93
2018-05-01T00:10:15.267Z,930.91
2018-05-01T00:10:27.798Z,930.92
2018-05-01T00:10:40.334Z,930.95
2018-05-01T00:10:52.870Z,930.95
2018-05-01T00:11:04.924Z,930.98
2018-05-01T00:11:17.472Z,930.96
2018-05-01T00:11:29.562Z,930.97
2018-05-01T00:11:42.616Z,931
2018-05-01T00:11:56.222Z,930.97
2018-05-01T00:12:08.749Z,930.95
2018-05-01T00:12:20.860Z,930.97
2018-05-01T00:12:32.955Z,930.99
2018-05-01T00:12:46.009Z,930.94
2018-05-01T00:12:59.022Z,931
2018-05-01T00:13:09.697Z,930.97
2018-05-01T00:13:22.208Z,930.98
2018-05-01T00:13:34.770Z,930.99
2018-05-01T00:13:46.865Z,930.99
2018-05-01T00:13:59.904Z,930.98
2018-05-01T00:14:12.907Z,930.99
2018-05-01T00:14:25.953Z,930.99
2018-05-01T00:14:38.066Z,930.99
2018-05-01T00:14:51.189Z,931.02
2018-05-01T00:15:03.292Z,930.99
2018-05-01T00:15:15.883Z,931
2018-05-01T00:15:28.922Z,931.01
2018-05-01T00:15:41.447Z,931.02
2018-05-01T00:15:54.503Z,931.01
2018-05-01T00:16:07.492Z,930.99
2018-05-01T00:17:04.489Z,930.99
2018-05-01T00:17:17.135Z,931.01
2018-05-01T00:17:30.188Z,931.02
2018-05-01T00:17:43.211Z,931.01
2018-05-01T00:17:55.841Z,930.98
2018-05-01T00:18:08.421Z,930.99
2018-05-01T00:18:20.980Z,930.98
2018-05-01T00:18:33.995Z,931.01
2018-05-01T00:18:46.548Z,930.98
2018-05-01T00:18:59.865Z,930.98
2018-05-01T00:19:12.777Z,930.99
2018-05-01T00:19:25.243Z,930.98
2018-05-01T00:19:37.713Z,931
2018-05-01T00:19:50.215Z,930.98
2018-05-01T00:20:02.276Z,931
2018-05-01T00:20:14.802Z,930.98
2018-05-01T00:20:27.378Z,931.01
2018-05-01T00:20:40.393Z,931.01
2018-05-01T00:20:52.963Z,930.99
2018-05-01T00:21:05.519Z,931.01
2018-05-01T00:21:18.084Z,930.98
2018-05-01T00:21:30.170Z,930.99
2018-05-01T00:21:42.264Z,931
2018-05-01T00:21:55.277Z,930.99
2018-05-01T00:22:07.345Z,931.02
2018-05-01T00:22:19.907Z,930.97
2018-05-01T00:22:31.997Z,930.99
2018-05-01T00:22:44.968Z,931
2018-05-01T00:22:57.471Z,931.02
2018-05-01T00:23:10.461Z,931
2018-05-01T00:23:23.480Z,931.02
2018-05-01T00:23:36.508Z,931
2018-05-01T00:23:49.519Z,931.01
2018-05-01T00:24:02.090Z,931
2018-05-01T00:24:14.642Z,931.01
2018-05-01T00:24:26.727Z,931.02
2018-05-01T00:24:38.823Z,931.02
2018-05-01T00:24:51.824Z,930.98
2018-05-01T00:25:04.381Z,931.04
2018-05-01T00:25:17.383Z,931.02
2018-05-01T00:25:29.898Z,931.01
2018-05-01T00:25:41.945Z,931
2018-05-01T00:25:54.025Z,931.02
2018-05-01T00:26:06.063Z,931
2018-05-01T00:26:18.596Z,931.01
2018-05-01T00:26:31.628Z,931.01
2018-05-01T00:26:43.743Z,931.05
2018-05-01T00:26:56.330Z,931.04
2018-05-01T00:27:10.118Z,931.02
2018-05-01T00:27:23.113Z,931.02
2018-05-01T00:27:35.647Z,931
2018-05-01T00:27:47.723Z,931.02
2018-05-01T00:28:00.732Z,931.05
2018-05-01T00:28:13.759Z,931.05
2018-05-01T00:28:26.334Z,931.03
2018-05-01T00:28:38.455Z,931.04
2018-05-01T00:28:51.009Z,931.03
2018-05-01T00:29:03.545Z,931.04
2018-05-01T00:29:16.108Z,931.02
2018-05-01T00:29:29.110Z,931.01
2018-05-01T00:29:42.184Z,931.01
2018-05-01T00:29:54.736Z,931.03
2018-05-01T00:30:06.335Z,931.03
2018-05-01T00:30:18.875Z,931.01
2018-05-01T00:30:31.877Z,931.01
2018-05-01T00:30:43.487Z,930.99
2018-05-01T00:30:56.047Z,931.01
2018-05-01T00:31:09.109Z,931
2018-05-01T00:31:22.121Z,931.01
2018-05-01T00:31:34.635Z,931.01
2018-05-01T00:31:47.156Z,931.01
2018-05-01T00:32:00.166Z,931.03
2018-05-01T00:32:13.168Z,931.04
2018-05-01T00:32:25.246Z,931
2018-05-01T00:32:38.244Z,930.96
2018-05-01T00:32:51.272Z,930.97
2018-05-01T00:33:03.800Z,930.98
2018-05-01T00:33:16.843Z,930.99
2018-05-01T00:33:29.845Z,931
2018-05-01T00:33:42.350Z,931
2018-05-01T00:33:55.454Z,931
2018-05-01T00:34:08.486Z,931
2018-05-01T00:34:21.026Z,930.99
2018-05-01T00:34:33.585Z,930.97
2018-05-01T00:34:45.177Z,930.98
2018-05-01T00:34:58.214Z,930.97
2018-05-01T00:35:10.742Z,930.97
2018-05-01T00:35:23.293Z,930.98
2018-05-01T00:35:35.382Z,930.97
2018-05-01T00:35:48.399Z,930.98
2018-05-01T00:36:00.971Z,930.97
2018-05-01T00:36:13.943Z,930.97
2018-05-01T00:36:26.500Z,930.99
2018-05-01T00:36:39.517Z,931
2018-05-01T00:36:52.066Z,930.98
2018-05-01T00:37:05.110Z,930.97
2018-05-01T00:37:17.668Z,931.01
2018-05-01T00:37:30.261Z,931
2018-05-01T00:37:43.356Z,930.97
2018-05-01T00:37:55.899Z,930.97
2018-05-01T00:38:07.998Z,930.95
2018-05-01T00:38:21.032Z,931
2018-05-01T00:38:34.046Z,930.97
2018-05-01T00:38:47.069Z,930.95
2018-05-01T00:38:59.616Z,930.97
2018-05-01T00:39:12.646Z,930.94
2018-05-01T00:39:25.188Z,930.98
2018-05-01T00:39:38.174Z,930.95
2018-05-01T00:39:50.718Z,930.97
2018-05-01T00:40:03.681Z,930.96
2018-05-01T00:40:16.706Z,930.95
2018-05-01T00:40:28.798Z,930.94
2018-05-01T00:40:41.803Z,930.99
2018-05-01T00:40:54.372Z,930.99
2018-05-01T00:41:07.002Z,930.98
2018-05-01T00:41:19.571Z,930.95
2018-05-01T00:41:32.592Z,930.94
2018-05-01T00:41:45.127Z,930.92
2018-05-01T00:41:57.246Z,930.93
2018-05-01T00:42:09.330Z,930.95
2018-05-01T00:42:22.679Z,930.92
2018-05-01T00:42:35.710Z,930.96
2018-05-01T00:42:48.249Z,930.97
2018-05-01T00:43:01.311Z,930.93
2018-05-01T00:43:14.320Z,930.96
2018-05-01T00:43:27.341Z,930.95
2018-05-01T00:43:39.464Z,930.96
2018-05-01T00:43:51.984Z,930.92
2018-05-01T00:44:05.024Z,930.96
2018-05-01T00:44:18.017Z,931
2018-05-01T00:44:30.563Z,930.97
2018-05-01T00:44:43.121Z,930.97
2018-05-01T00:44:56.165Z,930.94
2018-05-01T00:45:08.746Z,930.97
2018-05-01T00:45:21.763Z,930.95
2018-05-01T00:45:34.307Z,930.98
2018-05-01T00:45:46.860Z,930.95
2018-05-01T00:45:59.863Z,930.97
2018-05-01T00:46:12.934Z,930.99
2018-05-01T00:46:25.443Z,930.98
2018-05-01T00:46:37.979Z,931
2018-05-01T00:46:50.533Z,930.98
2018-05-01T00:47:03.159Z,930.96
2018-05-01T00:47:15.379Z,930.97
2018-05-01T00:47:27.916Z,930.98
2018-05-01T00:47:40.961Z,930.98
2018-05-01T00:47:53.068Z,930.95
2018-05-01T00:48:06.119Z,930.97
2018-05-01T00:48:18.672Z,930.98
2018-05-01T00:48:30.277Z,930.97
2018-05-01T00:48:43.282Z,930.99
2018-05-01T00:48:55.846Z,930.97
2018-05-01T00:49:08.425Z,931.01
2018-05-01T00:49:20.949Z,930.98
2018-05-01T00:49:33.020Z,931.01
2018-05-01T00:49:46.083Z,930.99
2018-05-01T00:49:59.073Z,931
2018-05-01T00:50:11.600Z,931.03
2018-05-01T00:50:24.163Z,931.01
2018-05-01T00:50:37.170Z,931.01
2018-05-01T00:50:50.207Z,930.99
2018-05-01T00:51:02.755Z,930.99
2018-05-01T00:51:15.331Z,931.02
2018-05-01T00:51:28.545Z,931.01
2018-05-01T00:51:41.476Z,930.98
2018-05-01T00:51:54.238Z,930.97
2018-05-01T00:52:06.744Z,931.02
2018-05-01T00:52:19.779Z,931
2018-05-01T00:52:31.350Z,930.98
2018-05-01T00:52:44.391Z,930.99
2018-05-01T00:52:56.455Z,931.03
2018-05-01T00:53:08.962Z,930.98
2018-05-01T00:53:21.946Z,930.99
2018-05-01T00:53:34.970Z,930.99
2018-05-01T00:53:48.007Z,930.98
2018-05-01T00:54:01.042Z,930.98
2018-05-01T00:54:14.013Z,930.96
2018-05-01T00:54:25.660Z,930.94
2018-05-01T00:54:38.294Z,930.97
2018-05-01T00:54:49.895Z,930.95
2018-05-01T00:55:02.427Z,930.97
2018-05-01T00:55:14.973Z,930.96
2018-05-01T00:55:27.995Z,930.99
2018-05-01T00:55:40.988Z,930.95
2018-05-01T00:55:53.998Z,930.97
2018-05-01T00:56:06.116Z,930.95
2018-05-01T00:56:19.107Z,930.96
2018-05-01T00:56:31.211Z,930.97
2018-05-01T00:56:44.268Z,930.94
2018-05-01T00:56:57.291Z,930.96
2018-05-01T00:57:09.836Z,930.95
2018-05-01T00:57:22.997Z,930.99
2018-05-01T00:57:35.531Z,930.96
2018-05-01T00:57:47.630Z,930.97
2018-05-01T00:58:00.602Z,930.96
2018-05-01T00:58:12.681Z,930.97
2018-05-01T00:58:25.695Z,930.95
2018-05-01T00:58:38.290Z,930.97
2018-05-01T00:58:51.283Z,930.98
2018-05-01T00:59:03.334Z,930.99
2018-05-01T00:59:15.872Z,930.96
2018-05-01T00:59:28.878Z,930.97
2018-05-01T00:59:40.952Z,930.97
2018-05-01T00:59:53.988Z,930.96
2018-05-01T01:00:05.153Z,930.95
2018-05-01T01:00:17.702Z,930.97
2018-05-01T01:00:30.208Z,930.96
2018-05-01T01:00:43.227Z,930.96
2018-05-01T01:00:55.751Z,930.98
2018-05-01T01:01:07.930Z,930.97
2018-05-01T01:01:20.036Z,930.97
2018-05-01T01:01:32.578Z,930.98
2018-05-01T01:01:45.600Z,930.98
2018-05-01T01:01:58.136Z,930.97
2018-05-01T01:02:11.144Z,931
2018-05-01T01:02:23.271Z,930.96
2018-05-01T01:02:35.775Z,930.94
2018-05-01T01:02:48.324Z,930.96
2018-05-01T01:03:00.869Z,930.96
2018-05-01T01:03:13.875Z,930.96
2018-05-01T01:03:25.958Z,930.97
2018-05-01T01:03:38.633Z,930.98
2018-05-01T01:03:51.894Z,930.96
2018-05-01T01:04:04.518Z,930.96
2018-05-01T01:04:17.567Z,930.97
2018-05-01T01:04:29.763Z,930.96
2018-05-01T01:04:42.356Z,930.97
2018-05-01T01:04:55.489Z,930.97
2018-05-01T01:05:08.050Z,930.97
2018-05-01T01:05:21.086Z,930.96
2018-05-01T01:05:33.608Z,930.98
2018-05-01T01:05:46.172Z,930.95
2018-05-01T01:05:59.153Z,930.97
2018-05-01T01:06:11.268Z,930.97
2018-05-01T01:06:24.292Z,930.95
2018-05-01T01:06:36.816Z,930.94
2018-05-01T01:06:49.830Z,930.97
2018-05-01T01:07:02.389Z,930.93
2018-05-01T01:07:14.966Z,930.94
2018-05-01T01:07:28.005Z,930.94
2018-05-01T01:07:41.033Z,930.95
2018-05-01T01:07:54.070Z,930.94
2018-05-01T01:08:07.085Z,930.94
2018-05-01T01:08:20.081Z,930.94
2018-05-01T01:08:32.618Z,930.93
2018-05-01T01:08:44.679Z,930.93
2018-05-01T01:08:57.222Z,930.91
2018-05-01T01:09:10.236Z,930.94
2018-05-01T01:09:22.796Z,930.93
2018-05-01T01:09:35.362Z,930.95
2018-05-01T01:09:48.371Z,930.94
2018-05-01T01:10:00.929Z,930.93
2018-05-01T01:10:12.571Z,930.92
2018-05-01T01:10:25.100Z,930.97
2018-05-01T01:10:37.695Z,930.95
2018-05-01T01:10:49.783Z,930.95
2018-05-01T01:11:02.783Z,930.96
2018-05-01T01:11:14.874Z,930.98
2018-05-01T01:11:27.442Z,930.95
2018-05-01T01:11:40.465Z,930.96
2018-05-01T01:11:53.037Z,931
2018-05-01T01:12:05.544Z,931.01
2018-05-01T01:12:18.070Z,930.99
2018-05-01T01:12:31.399Z,930.95
2018-05-01T01:12:43.947Z,930.99
2018-05-01T01:12:55.554Z,930.97
2018-05-01T01:13:07.614Z,931
2018-05-01T01:13:20.653Z,930.99
2018-05-01T01:13:33.736Z,930.99
2018-05-01T01:13:46.291Z,931.01
2018-05-01T01:13:58.390Z,931.02
2018-05-01T01:14:10.472Z,931
2018-05-01T01:14:23.433Z,931.01
2018-05-01T01:14:35.521Z,931
2018-05-01T01:14:48.090Z,931.01
2018-05-01T01:15:01.155Z,931
2018-05-01T01:15:14.192Z,931
2018-05-01T01:15:27.206Z,931.01
2018-05-01T01:15:39.778Z,931
2018-05-01T01:15:52.420Z,931
2018-05-01T01:16:05.536Z,930.98
2018-05-01T01:16:17.605Z,930.96
2018-05-01T01:16:29.712Z,930.99
2018-05-01T01:16:42.719Z,930.98
2018-05-01T01:16:55.731Z,931
2018-05-01T01:17:07.797Z,931.03
2018-05-01T01:17:20.838Z,930.99
2018-05-01T01:17:33.891Z,930.99
2018-05-01T01:17:46.495Z,931
2018-05-01T01:17:59.522Z,930.99
2018-05-01T01:18:11.595Z,931
2018-05-01T01:18:24.115Z,931.01
2018-05-01T01:18:36.677Z,930.99
2018-05-01T01:18:49.222Z,931.01
2018-05-01T01:19:01.324Z,931.01
2018-05-01T01:19:14.367Z,931.01
2018-05-01T01:19:26.991Z,931.01
2018-05-01T01:19:39.527Z,931.01
2018-05-01T01:19:52.074Z,931.01
2018-05-01T01:20:04.164Z,931
2018-05-01T01:20:16.726Z,930.99
2018-05-01T01:20:29.312Z,931
2018-05-01T01:20:41.877Z,931.02
2018-05-01T01:20:54.914Z,930.98
2018-05-01T01:21:07.888Z,931.02
2018-05-01T01:21:20.896Z,930.98
2018-05-01T01:21:33.438Z,930.97
2018-05-01T01:21:45.961Z,930.98
2018-05-01T01:21:58.501Z,931
2018-05-01T01:22:10.553Z,930.99
2018-05-01T01:22:23.558Z,931.01
2018-05-01T01:22:35.644Z,930.98
2018-05-01T01:22:48.206Z,930.98
2018-05-01T01:23:01.208Z,930.99
2018-05-01T01:23:14.246Z,931.02
2018-05-01T01:23:26.311Z,930.99
2018-05-01T01:23:39.324Z,931
2018-05-01T01:23:51.874Z,931.01
2018-05-01T01:24:03.957Z,931.01
2018-05-01T01:24:17.005Z,931.01
2018-05-01T01:24:29.516Z,931.01
2018-05-01T01:24:42.064Z,931.03
2018-05-01T01:24:55.077Z,931.02
2018-05-01T01:25:08.132Z,931
2018-05-01T01:25:21.141Z,931.01
2018-05-01T01:25:34.174Z,931.01
2018-05-01T01:25:47.143Z,931
2018-05-01T01:25:59.731Z,931.04
2018-05-01T01:26:12.313Z,931.02
2018-05-01T01:26:24.433Z,930.99
2018-05-01T01:26:37.415Z,931.01
2018-05-01T01:26:49.967Z,931.03
2018-05-01T01:27:02.534Z,930.97
2018-05-01T01:27:15.064Z,931
2018-05-01T01:27:28.128Z,930.98
2018-05-01T01:27:41.632Z,931
2018-05-01T01:27:54.189Z,930.98
2018-05-01T01:28:06.768Z,931.01
2018-05-01T01:28:19.814Z,931.06
2018-05-01T01:28:32.374Z,930.99
2018-05-01T01:28:44.896Z,930.99
2018-05-01T01:28:57.408Z,931.01
2018-05-01T01:29:09.026Z,931.01
2018-05-01T01:29:21.547Z,931.01
2018-05-01T01:29:33.662Z,931.03
2018-05-01T01:29:45.765Z,931.01
2018-05-01T01:29:58.776Z,931.02
2018-05-01T01:30:11.300Z,931.02
2018-05-01T01:30:24.296Z,931.02
2018-05-01T01:30:36.833Z,931.02
2018-05-01T01:30:49.406Z,931.03
2018-05-01T01:31:02.437Z,930.99
2018-05-01T01:31:15.010Z,930.98
2018-05-01T01:31:28.030Z,931.01
2018-05-01T01:31:40.574Z,930.99
2018-05-01T01:31:52.634Z,931.02
2018-05-01T01:32:04.700Z,931.01
2018-05-01T01:32:16.761Z,931.02
2018-05-01T01:32:29.748Z,931.01
2018-05-01T01:32:42.350Z,931
2018-05-01T01:32:55.358Z,931.03
2018-05-01T01:33:07.893Z,931
2018-05-01T01:33:20.931Z,931.03
2018-05-01T01:33:33.509Z,931.04
2018-05-01T01:33:46.042Z,931.04
2018-05-01T01:33:59.052Z,931.04
2018-05-01T01:34:11.578Z,931.05
2018-05-01T01:34:24.219Z,931.03
2018-05-01T01:34:36.296Z,931.03
2018-05-01T01:34:48.821Z,931.03
2018-05-01T01:35:01.362Z,931.04
2018-05-01T01:35:13.430Z,931.04
2018-05-01T01:35:26.446Z,931.05
2018-05-01T01:35:39.454Z,931.07
2018-05-01T01:35:52.428Z,931.04
2018-05-01T01:36:04.499Z,931.03
2018-05-01T01:36:17.081Z,931.07
2018-05-01T01:36:29.646Z,931.08
2018-05-01T01:36:42.193Z,931.07
2018-05-01T01:36:55.240Z,931.09
2018-05-01T01:37:07.774Z,931.08
2018-05-01T01:37:20.325Z,931.06
2018-05-01T01:37:33.357Z,931.06
2018-05-01T01:37:45.456Z,931.05
2018-05-01T01:37:58.455Z,931.1
2018-05-01T01:38:11.004Z,931.07
2018-05-01T01:38:24.005Z,931.07
2018-05-01T01:38:37.024Z,931.08
2018-05-01T01:38:50.055Z,931.09
2018-05-01T01:39:02.599Z,931.09
2018-05-01T01:39:14.713Z,931.13
2018-05-01T01:39:26.762Z,931.08
2018-05-01T01:39:39.350Z,931.08
2018-05-01T01:39:51.908Z,931.11
2018-05-01T01:40:04.461Z,931.1
2018-05-01T01:40:17.024Z,931.07
2018-05-01T01:40:29.603Z,931.12
2018-05-01T01:40:42.172Z,931.1
2018-05-01T01:40:55.202Z,931.12
2018-05-01T01:41:07.293Z,931.1
2018-05-01T01:41:19.799Z,931.12
2018-05-01T01:41:32.818Z,931.14
2018-05-01T01:41:45.377Z,931.13
2018-05-01T01:41:57.463Z,931.11
2018-05-01T01:42:10.540Z,931.08
2018-05-01T01:42:23.567Z,931.12
2018-05-01T01:42:36.902Z,931.12
2018-05-01T01:42:49.503Z,931.11
2018-05-01T01:43:02.055Z,931.11
2018-05-01T01:43:14.603Z,931.11
2018-05-01T01:43:26.692Z,931.11
2018-05-01T01:43:39.703Z,931.14
2018-05-01T01:43:52.708Z,931.12
2018-05-01T01:44:05.290Z,931.1
2018-05-01T01:44:17.373Z,931.13
2018-05-01T01:44:29.906Z,931.11
2018-05-01T01:44:41.978Z,931.11
2018-05-01T01:44:54.551Z,931.11
2018-05-01T01:45:06.665Z,931.13
2018-05-01T01:45:19.698Z,931.12
2018-05-01T01:45:32.749Z,931.13
2018-05-01T01:45:45.320Z,931.12
2018-05-01T01:45:57.866Z,931.12
2018-05-01T01:46:10.916Z,931.1
2018-05-01T01:46:23.456Z,931.15
2018-05-01T01:46:36.000Z,931.12
2018-05-01T01:46:48.087Z,931.13
2018-05-01T01:47:00.649Z,931.11
2018-05-01T01:47:13.220Z,931.12
2018-05-01T01:47:26.245Z,931.16
2018-05-01T01:47:38.319Z,931.13
2018-05-01T01:47:51.329Z,931.12
2018-05-01T01:48:03.904Z,931.16
2018-05-01T01:48:15.972Z,931.15
2018-05-01T01:48:29.018Z,931.16
2018-05-01T01:48:41.568Z,931.15
2018-05-01T01:48:54.115Z,931.19
2018-05-01T01:49:07.147Z,931.19
2018-05-01T01:49:20.151Z,931.17
2018-05-01T01:49:33.172Z,931.18
2018-05-01T01:49:45.252Z,931.22
2018-05-01T01:49:57.814Z,931.2
2018-05-01T01:50:10.361Z,931.19
2018-05-01T01:50:23.370Z,931.19
2018-05-01T01:50:35.896Z,931.21
2018-05-01T01:50:48.426Z,931.16
2018-05-01T01:51:00.518Z,931.16
2018-05-01T01:51:13.526Z,931.14
2018-05-01T01:51:26.081Z,931.19
2018-05-01T01:51:39.123Z,931.19
2018-05-01T01:51:52.138Z,931.18
2018-05-01T01:52:05.133Z,931.15
2018-05-01T01:52:18.214Z,931.14
2018-05-01T01:52:30.291Z,931.19
2018-05-01T01:52:43.428Z,931.14
2018-05-01T01:52:56.456Z,931.18
2018-05-01T01:53:09.467Z,931.18
2018-05-01T01:53:22.466Z,931.21
2018-05-01T01:53:34.553Z,931.16
2018-05-01T01:53:47.615Z,931.21
2018-05-01T01:54:00.117Z,931.19
2018-05-01T01:54:12.175Z,931.18
2018-05-01T01:54:25.232Z,931.14
2018-05-01T01:54:37.281Z,931.14
2018-05-01T01:54:49.843Z,931.19
2018-05-01T01:55:02.423Z,931.19
2018-05-01T01:55:14.505Z,931.2
2018-05-01T01:55:26.577Z,931.22
2018-05-01T01:55:39.618Z,931.19
2018-05-01T01:55:52.633Z,931.2
2018-05-01T01:56:05.201Z,931.2
2018-05-01T01:56:16.835Z,931.17
2018-05-01T01:56:29.851Z,931.18
2018-05-01T01:56:42.866Z,931.14
2018-05-01T01:56:55.427Z,931.18
2018-05-01T01:57:08.466Z,931.15
2018-05-01T01:57:21.008Z,931.17
2018-05-01T01:57:34.064Z,931.17
2018-05-01T01:57:48.065Z,931.17
2018-05-01T01:58:00.568Z,931.19
2018-05-01T01:58:13.580Z,931.18
2018-05-01T01:58:26.566Z,931.13
2018-05-01T01:58:39.128Z,931.16
2018-05-01T01:58:52.093Z,931.15
2018-05-01T01:59:05.108Z,931.16
2018-05-01T01:59:17.175Z,931.18
2018-05-01T01:59:29.695Z,931.17
2018-05-01T01:59:42.257Z,931.17
2018-05-01T01:59:53.872Z,931.15
2018-05-01T02:00:06.933Z,931.11
2018-05-01T02:00:19.028Z,931.16
2018-05-01T02:00:32.073Z,931.18
2018-05-01T02:00:45.120Z,931.13
2018-05-01T02:00:58.133Z,931.15
2018-05-01T02:01:09.767Z,931.17
2018-05-01T02:01:22.348Z,931.13
2018-05-01T02:01:35.360Z,931.14
2018-05-01T02:01:48.370Z,931.14
2018-05-01T02:02:01.387Z,931.18
2018-05-01T02:02:13.935Z,931.19
2018-05-01T02:02:27.005Z,931.15
2018-05-01T02:02:38.194Z,931.13
2018-05-01T02:02:50.288Z,931.14
2018-05-01T02:03:02.331Z,931.18
2018-05-01T02:03:14.892Z,931.14
2018-05-01T02:03:27.431Z,931.16
2018-05-01T02:03:39.976Z,931.14
2018-05-01T02:03:52.983Z,931.15
2018-05-01T02:04:05.523Z,931.14
2018-05-01T02:04:18.536Z,931.1
2018-05-01T02:04:31.530Z,931.13
2018-05-01T02:04:44.557Z,931.15
2018-05-01T02:04:57.111Z,931.13
2018-05-01T02:05:09.197Z,931.1
2018-05-01T02:05:22.216Z,931.12
2018-05-01T02:05:34.769Z,931.11
2018-05-01T02:05:46.864Z,931.15
2018-05-01T02:05:59.445Z,931.11
2018-05-01T02:06:11.544Z,931.12
2018-05-01T02:06:24.152Z,931.09
2018-05-01T02:06:37.202Z,931.1
2018-05-01T02:06:50.219Z,931.12
2018-05-01T02:07:02.301Z,931.1
2018-05-01T02:07:14.887Z,931.1
2018-05-01T02:07:27.928Z,931.08
2018-05-01T02:07:40.505Z,931.12
2018-05-01T02:07:53.043Z,931.11
2018-05-01T02:08:05.635Z,931.12
2018-05-01T02:08:18.178Z,931.09
2018-05-01T02:08:31.232Z,931.08
2018-05-01T02:08:43.804Z,931.11
2018-05-01T02:08:55.906Z,931.09
2018-05-01T02:09:08.408Z,931.08
2018-05-01T02:09:21.412Z,931.09
2018-05-01T02:09:33.525Z,931.08
2018-05-01T02:09:46.539Z,931.08
2018-05-01T02:09:59.077Z,931.08
2018-05-01T02:10:11.591Z,931.1
2018-05-01T02:10:24.183Z,931.1
2018-05-01T02:10:37.214Z,931.07
2018-05-01T02:10:50.286Z,931.1
2018-05-01T02:11:02.884Z,931.12
2018-05-01T02:11:15.435Z,931.11
2018-05-01T02:11:28.419Z,931.11
2018-05-01T02:11:40.514Z,931.1
2018-05-01T02:11:53.551Z,931.14
2018-05-01T02:12:06.558Z,931.1
2018-05-01T02:12:19.590Z,931.13
2018-05-01T02:12:32.167Z,931.15
2018-05-01T02:12:45.188Z,931.13
2018-05-01T02:12:58.561Z,931.14
2018-05-01T02:13:10.614Z,931.13
2018-05-01T02:13:23.153Z,931.11
2018-05-01T02:13:35.253Z,931.12
2018-05-01T02:13:47.818Z,931.1
2018-05-01T02:14:00.379Z,931.11
2018-05-01T02:14:12.922Z,931.11
2018-05-01T02:14:25.466Z,931.12
2018-05-01T02:14:38.521Z,931.14
2018-05-01T02:14:51.512Z,931.13
2018-05-01T02:15:04.021Z,931.09
2018-05-01T02:15:16.609Z,931.11
2018-05-01T02:15:29.157Z,931.14
2018-05-01T02:15:42.151Z,931.09
2018-05-01T02:15:54.726Z,931.12
2018-05-01T02:16:07.744Z,931.11
2018-05-01T02:16:20.293Z,931.11
2018-05-01T02:16:32.815Z,931.13
2018-05-01T02:16:45.789Z,931.11
2018-05-01T02:16:58.347Z,931.1
2018-05-01T02:17:11.381Z,931.12
2018-05-01T02:17:23.934Z,931.11
2018-05-01T02:17:36.041Z,931.09
2018-05-01T02:17:49.069Z,931.12
2018-05-01T02:18:01.626Z,931.1
2018-05-01T02:18:14.181Z,931.13
2018-05-01T02:18:26.270Z,931.09
2018-05-01T02:18:39.314Z,931.11
2018-05-01T02:18:51.848Z,931.1
2018-05-01T02:19:04.405Z,931.1
2018-05-01T02:19:17.388Z,931.11
2018-05-01T02:19:29.947Z,931.11
2018-05-01T02:19:42.531Z,931.1
2018-05-01T02:19:54.613Z,931.1
2018-05-01T02:20:07.648Z,931.09
2018-05-01T02:20:20.714Z,931.12
2018-05-01T02:20:33.256Z,931.12
2018-05-01T02:20:46.274Z,931.09
2018-05-01T02:20:58.331Z,931.14
2018-05-01T02:21:11.408Z,931.08
2018-05-01T02:21:23.964Z,931.09
2018-05-01T02:21:36.976Z,931.09
2018-05-01T02:21:49.572Z,931.11
2018-05-01T02:22:02.116Z,931.1
2018-05-01T02:22:15.122Z,931.09
2018-05-01T02:22:27.643Z,931.12
2018-05-01T02:22:40.191Z,931.1
2018-05-01T02:22:52.758Z,931.08
2018-05-01T02:23:05.803Z,931.07
2018-05-01T02:23:18.388Z,931.07
2018-05-01T02:23:31.389Z,931.12
2018-05-01T02:23:43.935Z,931.11
2018-05-01T02:23:56.493Z,931.04
2018-05-01T02:24:09.551Z,931.08
2018-05-01T02:24:22.123Z,931.08
2018-05-01T02:24:34.672Z,931.07
2018-05-01T02:24:47.322Z,931.09
2018-05-01T02:25:00.305Z,931.11
2018-05-01T02:25:12.850Z,931.08
2018-05-01T02:25:25.371Z,931.08
2018-05-01T02:25:38.390Z,931.1
2018-05-01T02:25:50.919Z,931.09
2018-05-01T02:26:03.963Z,931.08
2018-05-01T02:26:16.945Z,931.08
2018-05-01T02:26:29.969Z,931.09
2018-05-01T02:26:43.004Z,931.1
2018-05-01T02:26:56.032Z,931.08
2018-05-01T02:27:08.629Z,931.07
2018-05-01T02:27:21.638Z,931.07
2018-05-01T02:27:34.672Z,931.08
2018-05-01T02:27:46.740Z,931.08
2018-05-01T02:27:58.818Z,931.11
2018-05-01T02:28:11.397Z,931.09
2018-05-01T02:28:23.472Z,931.07
2018-05-01T02:28:35.522Z,931.05
2018-05-01T02:28:48.497Z,931.09
2018-05-01T02:29:00.567Z,931.04
2018-05-01T02:29:13.542Z,931.09
2018-05-01T02:29:25.671Z,931.05
2018-05-01T02:29:37.690Z,931.1
2018-05-01T02:29:49.812Z,931.1
2018-05-01T02:30:02.355Z,931.06
2018-05-01T02:30:14.933Z,931.06
2018-05-01T02:30:27.539Z,931.07
2018-05-01T02:30:40.087Z,931.09
2018-05-01T02:30:52.648Z,931.06
2018-05-01T02:31:05.656Z,931.08
2018-05-01T02:31:18.690Z,931.05
2018-05-01T02:31:31.743Z,931.08
2018-05-01T02:31:44.771Z,931.05
2018-05-01T02:31:57.775Z,931.03
2018-05-01T02:32:10.338Z,931.04
2018-05-01T02:32:23.461Z,931.04
2018-05-01T02:32:36.510Z,931.04
2018-05-01T02:32:49.505Z,931.04
2018-05-01T02:33:02.538Z,931.05
2018-05-01T02:33:15.520Z,931.05
2018-05-01T02:33:28.574Z,931.04
2018-05-01T02:33:41.567Z,931.1
2018-05-01T02:33:54.586Z,931.05
2018-05-01T02:34:07.159Z,931.09
2018-05-01T02:34:20.161Z,931.06
2018-05-01T02:34:32.743Z,931.04
2018-05-01T02:34:45.326Z,931
2018-05-01T02:34:57.844Z,931.05
2018-05-01T02:35:10.884Z,931.08
2018-05-01T02:35:23.890Z,931.03
2018-05-01T02:35:36.889Z,931.04
2018-05-01T02:35:49.889Z,931.05
2018-05-01T02:36:02.414Z,931.05
2018-05-01T02:36:14.986Z,931.03
2018-05-01T02:36:27.614Z,931.05
2018-05-01T02:36:40.689Z,931.03
2018-05-01T02:36:53.735Z,931.07
2018-05-01T02:37:06.748Z,931.08
2018-05-01T02:37:19.745Z,931.05
2018-05-01T02:37:32.302Z,931.06
2018-05-01T02:37:44.830Z,931.04
2018-05-01T02:37:57.817Z,931.07
2018-05-01T02:38:10.365Z,931.06
2018-05-01T02:38:23.418Z,931.05
2018-05-01T02:38:36.429Z,931.05
2018-05-01T02:38:48.977Z,931.05
2018-05-01T02:39:01.545Z,931.05
2018-05-01T02:39:14.594Z,931.05
2018-05-01T02:39:27.147Z,931.05
2018-05-01T02:39:39.191Z,931.04
2018-05-01T02:39:52.189Z,931.08
2018-05-01T02:40:05.231Z,931.04
2018-05-01T02:40:17.341Z,931.05
2018-05-01T02:40:30.343Z,931.06